Time;durP1;ratioP1;P1;durP2;ratioP2;P2;SDS_P1;SDS_P2;PMS_P1;PMS_P2;Temp;Humidity;BMP_temperature;BMP_pressure;BME280_temperature;BME280_humidity;BME280_pressure;Samples;Min_cycle;Max_cycle;Signal;HPM_P1;HPM_P2
2023/09/29 00:00:36;;;;;;;;;;;;;;;18.44;62.85;101004.69;5415294;32;34167;-82
2023/09/29 00:03:39;;;;;;;;;;;;;;;18.64;62.68;101003.44;5435350;32;34142;-82
2023/09/29 00:06:41;;;;;;;;;;;;;;;18.49;62.81;101007.91;5435289;32;34087;-83
2023/09/29 00:09:43;;;;;;;;;;;;;;;18.75;61.85;101008.97;5435456;32;35489;-82
2023/09/29 00:12:46;;;;;;;;;;;;;;;19.53;59.67;101003.88;5419969;32;33858;-83
2023/09/29 00:15:48;;;;;;;;;;;;;;;19.45;59.46;101001.75;5435800;32;35201;-82
2023/09/29 00:18:51;;;;;;;;;;;;;;;18.59;63.18;101003.72;5423473;32;35073;-82
2023/09/29 00:21:53;;;;;;;;;;;;;;;18.39;64.06;101009.41;5413867;32;34315;-82
2023/09/29 00:24:56;;;;;;;;;;;;;;;18.23;64.58;101001.53;5431645;32;34194;-87
2023/09/29 00:28:00;;;;;;;;;;;;;;;18.48;64.18;101005.31;5434563;32;35322;-84
2023/09/29 00:31:04;;;;;;;;;;;;;;;18.54;63.07;101003.13;5432863;32;34030;-82
2023/09/29 00:34:06;;;;;;;;;;;;;;;19.13;61.00;101003.84;5432846;32;34046;-85
2023/09/29 00:37:09;;;;;;;;;;;;;;;19.10;60.99;100995.19;5430638;32;36345;-83
2023/09/29 00:40:13;;;;;;;;;;;;;;;18.87;60.95;101009.97;5431763;32;35382;-83
2023/09/29 00:43:15;;;;;;;;;;;;;;;18.57;62.64;100999.44;5431414;32;34118;-85
2023/09/29 00:46:17;;;;;;;;;;;;;;;19.32;60.29;101006.16;5419252;32;35188;-83
2023/09/29 00:49:19;;;;;;;;;;;;;;;19.20;60.50;101002.50;5418029;32;34894;-83
2023/09/29 00:52:23;;;;;;;;;;;;;;;19.43;59.40;101003.63;5427973;32;33676;-83
2023/09/29 00:55:28;;;;;;;;;;;;;;;18.82;61.21;100999.63;5416418;32;35770;-84
2023/09/29 00:58:30;;;;;;;;;;;;;;;18.13;64.21;101005.69;5428555;32;35459;-84
2023/09/29 01:01:36;;;;;;;;;;;;;;;18.96;61.09;100996.09;5431013;32;34122;-81
2023/09/29 01:04:38;;;;;;;;;;;;;;;18.37;63.53;100993.56;5432031;32;33804;-82
2023/09/29 01:07:44;;;;;;;;;;;;;;;18.30;63.54;100997.56;5429994;32;34106;-81
2023/09/29 01:10:46;;;;;;;;;;;;;;;17.91;65.28;100999.97;5431904;32;33794;-82
2023/09/29 01:13:48;;;;;;;;;;;;;;;18.20;64.08;100999.06;5427783;32;35315;-82
2023/09/29 01:16:50;;;;;;;;;;;;;;;18.66;62.48;101004.19;5430372;32;33821;-82
2023/09/29 01:19:52;;;;;;;;;;;;;;;18.22;63.07;101004.28;5429392;32;33802;-84
2023/09/29 01:22:57;;;;;;;;;;;;;;;17.79;64.99;101004.22;5414111;32;34129;-82
2023/09/29 01:25:59;;;;;;;;;;;;;;;17.61;66.33;101011.44;5430069;32;34698;-82
2023/09/29 01:29:02;;;;;;;;;;;;;;;18.02;64.71;100989.53;5403228;32;34206;-83
2023/09/29 01:32:05;;;;;;;;;;;;;;;18.32;63.51;101000.97;5429856;32;34870;-84
2023/09/29 01:35:07;;;;;;;;;;;;;;;18.66;62.01;100994.41;5430111;32;35438;-83
2023/09/29 01:38:09;;;;;;;;;;;;;;;18.28;63.42;100998.56;5416678;32;34213;-82
2023/09/29 01:41:13;;;;;;;;;;;;;;;18.63;61.97;100999.06;5429214;32;33089;-81
2023/09/29 01:44:16;;;;;;;;;;;;;;;18.26;63.28;101001.34;5429895;32;34141;-82
2023/09/29 01:47:18;;;;;;;;;;;;;;;18.41;62.62;100996.87;5431656;32;33794;-82
2023/09/29 01:50:21;;;;;;;;;;;;;;;18.18;63.23;100995.63;5425482;32;35335;-81
2023/09/29 01:53:23;;;;;;;;;;;;;;;18.32;62.95;100995.63;5429255;32;34012;-82
2023/09/29 01:56:25;;;;;;;;;;;;;;;18.50;61.84;100996.31;5428648;32;34221;-82
2023/09/29 01:59:30;;;;;;;;;;;;;;;17.94;64.21;100999.78;5416438;32;35179;-82
2023/09/29 02:02:33;;;;;;;;;;;;;;;17.99;63.70;101006.53;5429392;32;34715;-82
2023/09/29 02:05:36;;;;;;;;;;;;;;;17.60;65.14;101009.72;5411803;32;34156;-82
2023/09/29 02:08:40;;;;;;;;;;;;;;;18.21;63.13;100998.09;5414796;32;34267;-81
2023/09/29 02:11:44;;;;;;;;;;;;;;;18.23;62.94;100998.88;5425721;32;34316;-83
2023/09/29 02:14:46;;;;;;;;;;;;;;;18.13;62.61;100981.75;5428108;32;34333;-82
2023/09/29 02:17:48;;;;;;;;;;;;;;;17.95;63.30;100996.16;5429185;32;34024;-81
2023/09/29 02:20:51;;;;;;;;;;;;;;;18.36;62.29;100998.97;5429844;32;34015;-81
2023/09/29 02:23:55;;;;;;;;;;;;;;;18.06;62.68;100999.03;5412988;32;34183;-81
2023/09/29 02:26:57;;;;;;;;;;;;;;;17.33;66.17;101005.06;5429050;32;35320;-81
2023/09/29 02:30:00;;;;;;;;;;;;;;;17.45;66.01;100999.97;5427574;32;35382;-81
2023/09/29 02:33:02;;;;;;;;;;;;;;;17.27;66.22;101000.09;5410653;32;35136;-81
2023/09/29 02:36:05;;;;;;;;;;;;;;;17.70;65.25;100999.41;5417740;32;34939;-82
2023/09/29 02:39:08;;;;;;;;;;;;;;;17.25;65.79;101009.94;5408323;32;34211;-82
2023/09/29 02:42:11;;;;;;;;;;;;;;;17.27;66.13;101007.22;5427853;32;35326;-83
2023/09/29 02:45:13;;;;;;;;;;;;;;;18.05;63.57;101002.66;5417401;32;35326;-83
2023/09/29 02:48:15;;;;;;;;;;;;;;;17.41;66.10;101007.28;5424644;32;34239;-82
2023/09/29 02:51:18;;;;;;;;;;;;;;;16.84;68.29;101006.13;5426919;32;35204;-83
2023/09/29 02:54:21;;;;;;;;;;;;;;;17.58;65.20;101003.63;5430622;32;34564;-82
2023/09/29 02:57:23;;;;;;;;;;;;;;;17.44;66.28;101004.44;5413791;32;35177;-83
2023/09/29 03:00:27;;;;;;;;;;;;;;;17.62;66.01;100999.84;5431479;32;33466;-82
2023/09/29 03:03:29;;;;;;;;;;;;;;;17.97;64.02;100994.25;5431526;32;35221;-85
2023/09/29 03:06:32;;;;;;;;;;;;;;;18.36;62.96;100991.00;5432609;32;34144;-82
2023/09/29 03:09:34;;;;;;;;;;;;;;;17.04;68.18;101009.38;5430330;32;34058;-83
2023/09/29 03:12:36;;;;;;;;;;;;;;;17.22;67.90;100999.50;5415572;32;34230;-83
2023/09/29 03:15:41;;;;;;;;;;;;;;;17.10;68.81;100994.88;5431305;32;35285;-82
2023/09/29 03:18:43;;;;;;;;;;;;;;;16.71;69.79;100997.97;5424631;32;34349;-84
2023/09/29 03:21:46;;;;;;;;;;;;;;;17.36;68.24;100997.84;5431358;32;34112;-82
2023/09/29 03:24:48;;;;;;;;;;;;;;;16.42;71.83;100994.19;5410020;32;34175;-82
2023/09/29 03:27:50;;;;;;;;;;;;;;;16.54;71.74;100996.19;5433298;32;35351;-83
2023/09/29 03:30:52;;;;;;;;;;;;;;;17.34;68.42;101005.94;5427318;32;35243;-83
2023/09/29 03:33:55;;;;;;;;;;;;;;;17.58;67.11;100996.53;5433189;32;33792;-83
2023/09/29 03:36:57;;;;;;;;;;;;;;;17.41;67.24;100999.31;5414994;32;34000;-83
2023/09/29 03:39:59;;;;;;;;;;;;;;;17.38;67.52;101007.44;5429865;32;33952;-83
2023/09/29 03:43:02;;;;;;;;;;;;;;;16.53;71.73;100997.13;5430972;32;33869;-82
2023/09/29 03:46:04;;;;;;;;;;;;;;;17.08;69.04;100996.78;5415272;32;34089;-81
2023/09/29 03:49:06;;;;;;;;;;;;;;;17.42;67.35;101003.66;5418794;32;34103;-83
2023/09/29 03:52:09;;;;;;;;;;;;;;;18.11;64.70;100994.31;5417030;32;34547;-82
2023/09/29 03:55:12;;;;;;;;;;;;;;;17.62;65.98;101006.97;5431167;32;35317;-84
2023/09/29 03:58:15;;;;;;;;;;;;;;;17.31;67.90;101006.09;5426274;32;35260;-84
2023/09/29 04:01:17;;;;;;;;;;;;;;;17.48;67.40;101008.62;5426386;32;33962;-83
2023/09/29 04:04:19;;;;;;;;;;;;;;;17.71;65.72;101010.00;5429180;32;33603;-83
2023/09/29 04:07:21;;;;;;;;;;;;;;;18.14;64.21;101002.09;5432437;32;34322;-82
2023/09/29 04:10:23;;;;;;;;;;;;;;;18.01;64.55;101001.97;5417058;32;35265;-83
2023/09/29 04:13:26;;;;;;;;;;;;;;;17.41;66.67;101009.94;5431442;32;34865;-84
2023/09/29 04:16:28;;;;;;;;;;;;;;;17.40;67.38;101010.03;5418773;32;34534;-84
2023/09/29 04:19:30;;;;;;;;;;;;;;;17.89;64.95;101007.16;5431281;32;35524;-81
2023/09/29 04:22:33;;;;;;;;;;;;;;;17.01;68.08;101014.00;5418075;32;34372;-81
2023/09/29 04:25:35;;;;;;;;;;;;;;;17.57;66.36;101010.75;5443329;32;34309;-83
2023/09/29 04:28:37;;;;;;;;;;;;;;;17.74;65.38;101019.56;5435909;32;34177;-84
2023/09/29 04:31:40;;;;;;;;;;;;;;;17.01;68.35;101016.66;5437238;32;34294;-84
2023/09/29 04:34:42;;;;;;;;;;;;;;;17.94;64.79;101008.59;5433476;32;34754;-83
2023/09/29 04:37:44;;;;;;;;;;;;;;;16.43;70.16;101027.78;5433208;32;34158;-82
2023/09/29 04:40:47;;;;;;;;;;;;;;;16.78;68.75;101018.78;5430218;32;34030;-82
2023/09/29 04:43:49;;;;;;;;;;;;;;;16.35;70.02;101029.94;5433496;32;34198;-84
2023/09/29 04:46:52;;;;;;;;;;;;;;;16.73;69.03;101027.94;5431536;32;34183;-82
2023/09/29 04:49:54;;;;;;;;;;;;;;;16.00;70.99;101027.34;5430981;32;34060;-83
2023/09/29 04:52:56;;;;;;;;;;;;;;;16.97;67.07;101031.03;5430198;32;34219;-83
2023/09/29 04:55:59;;;;;;;;;;;;;;;16.96;66.46;101034.63;5430724;32;34229;-82
2023/09/29 04:59:01;;;;;;;;;;;;;;;16.79;66.67;101023.13;5417850;32;34249;-83
2023/09/29 05:02:05;;;;;;;;;;;;;;;17.02;66.73;101036.97;5430279;32;34659;-82
2023/09/29 05:05:07;;;;;;;;;;;;;;;16.66;67.37;101032.69;5429010;32;33661;-82
2023/09/29 05:08:10;;;;;;;;;;;;;;;16.83;67.62;101041.56;5415679;32;34064;-82
2023/09/29 05:11:24;;;;;;;;;;;;;;;17.34;65.62;101040.47;5428793;32;33795;-83
2023/09/29 05:14:26;;;;;;;;;;;;;;;17.55;64.60;101041.03;5421674;32;33883;-82
2023/09/29 05:17:28;;;;;;;;;;;;;;;17.02;66.85;101042.28;5431243;32;34600;-82
2023/09/29 05:20:50;;;;;;;;;;;;;;;17.17;66.28;101045.84;5419196;32;33445;-81
2023/09/29 05:23:52;;;;;;;;;;;;;;;17.09;67.33;101046.28;5418507;32;34850;-81
2023/09/29 05:26:54;;;;;;;;;;;;;;;17.05;67.39;101053.56;5429220;32;33991;-82
2023/09/29 05:29:56;;;;;;;;;;;;;;;17.14;67.42;101052.22;5432877;32;35534;-84
2023/09/29 05:32:58;;;;;;;;;;;;;;;18.37;63.50;101037.94;5432109;32;35467;-80
2023/09/29 05:36:03;;;;;;;;;;;;;;;19.33;59.69;101041.66;5432360;32;34393;-80
2023/09/29 05:39:05;;;;;;;;;;;;;;;19.10;59.95;101046.66;5431230;32;33673;-81
2023/09/29 05:42:08;;;;;;;;;;;;;;;19.40;59.02;101043.81;5431653;32;33883;-80
2023/09/29 05:45:12;;;;;;;;;;;;;;;19.96;56.54;101039.19;5434751;32;35281;-91
2023/09/29 05:48:15;;;;;;;;;;;;;;;21.27;52.96;101036.22;5441411;32;35338;-89
2023/09/29 05:51:17;;;;;;;;;;;;;;;21.39;52.32;101038.03;5434188;32;33854;-84
2023/09/29 05:54:19;;;;;;;;;;;;;;;22.21;50.05;101038.94;5427804;32;35066;-85
2023/09/29 05:57:21;;;;;;;;;;;;;;;22.32;48.58;101036.28;5413950;32;35862;-85
2023/09/29 06:00:24;;;;;;;;;;;;;;;22.32;47.94;101035.44;5430973;32;35064;-82
2023/09/29 06:03:26;;;;;;;;;;;;;;;23.29;46.37;101033.94;5427336;32;34675;-83
2023/09/29 06:06:31;;;;;;;;;;;;;;;22.68;47.22;101032.53;5416438;32;34253;-80
2023/09/29 06:09:33;;;;;;;;;;;;;;;22.03;49.14;101041.19;5424846;32;34248;-79
2023/09/29 06:12:37;;;;;;;;;;;;;;;23.36;46.16;101035.12;5415271;32;33598;-83
2023/09/29 06:15:39;;;;;;;;;;;;;;;22.66;47.37;101047.88;5426907;32;35858;-81
2023/09/29 06:18:41;;;;;;;;;;;;;;;24.00;44.08;101032.44;5425302;32;35564;-81
2023/09/29 06:21:44;;;;;;;;;;;;;;;24.26;43.69;101039.09;5429251;32;34040;-80
2023/09/29 06:24:47;;;;;;;;;;;;;;;23.38;46.18;101047.47;5414260;32;33070;-83
2023/09/29 06:27:49;;;;;;;;;;;;;;;24.11;44.28;101044.97;5416149;32;34233;-86
2023/09/29 06:30:52;;;;;;;;;;;;;;;25.21;41.90;101049.59;5409025;32;34372;-86
2023/09/29 06:34:00;;;;;;;;;;;;;;;24.57;42.81;101047.22;5427531;32;34289;-81
2023/09/29 06:37:02;;;;;;;;;;;;;;;25.26;41.66;101047.34;5427519;32;34481;-80
2023/09/29 06:40:05;;;;;;;;;;;;;;;26.02;39.76;101047.56;5429680;32;34314;-84
2023/09/29 06:43:07;;;;;;;;;;;;;;;26.12;39.83;101053.75;5428270;32;33294;-82
2023/09/29 06:46:10;;;;;;;;;;;;;;;26.89;37.82;101044.59;5422718;32;33786;-82
2023/09/29 06:49:12;;;;;;;;;;;;;;;23.67;43.94;101061.16;5430629;32;34363;-81
2023/09/29 06:52:15;;;;;;;;;;;;;;;24.30;43.70;101056.69;5424018;32;34003;-82
2023/09/29 06:55:17;;;;;;;;;;;;;;;24.28;43.40;101058.66;5416685;32;34249;-81
2023/09/29 06:58:19;;;;;;;;;;;;;;;26.35;39.61;101048.91;5423296;32;102580;-83
2023/09/29 07:01:22;;;;;;;;;;;;;;;25.80;40.11;101059.44;5423446;32;34040;-83
2023/09/29 07:04:24;;;;;;;;;;;;;;;27.16;37.92;101049.16;5412139;32;31715;-81
2023/09/29 07:07:26;;;;;;;;;;;;;;;26.53;38.49;101061.63;5421369;32;34213;-80
2023/09/29 07:10:29;;;;;;;;;;;;;;;28.20;35.70;101057.56;5427729;32;34372;-77
2023/09/29 07:13:31;;;;;;;;;;;;;;;28.28;35.62;101060.34;5422619;32;34091;-81
2023/09/29 07:16:33;;;;;;;;;;;;;;;28.05;36.11;101064.56;5426944;32;35389;-82
2023/09/29 07:19:35;;;;;;;;;;;;;;;28.05;35.95;101061.84;5424692;32;35637;-82
2023/09/29 07:22:46;;;;;;;;;;;;;;;27.77;35.85;101066.53;5425312;32;34682;-81
2023/09/29 07:25:52;;;;;;;;;;;;;;;28.72;34.12;101070.25;5428718;32;33168;-86
2023/09/29 07:28:56;;;;;;;;;;;;;;;27.07;37.20;101066.25;5427734;32;33285;-82
2023/09/29 07:32:00;;;;;;;;;;;;;;;29.37;32.87;101062.41;5428031;32;34187;-83
2023/09/29 07:35:03;;;;;;;;;;;;;;;29.10;31.84;101060.78;5429877;32;34151;-83
2023/09/29 07:38:06;;;;;;;;;;;;;;;30.47;29.74;101074.69;5414666;32;34116;-81
2023/09/29 07:41:08;;;;;;;;;;;;;;;29.53;31.30;101070.59;5413150;32;33927;-80
2023/09/29 07:44:10;;;;;;;;;;;;;;;29.27;31.84;101067.97;5427652;32;34310;-78
2023/09/29 07:47:12;;;;;;;;;;;;;;;29.18;31.43;101068.13;5430370;32;34347;-81
2023/09/29 07:50:15;;;;;;;;;;;;;;;27.00;35.13;101075.91;5426424;32;34605;-78
2023/09/29 07:53:17;;;;;;;;;;;;;;;26.01;36.67;101083.53;5429154;32;34228;-81
2023/09/29 07:56:19;;;;;;;;;;;;;;;25.43;37.53;101079.94;5429529;32;35174;-80
2023/09/29 07:59:22;;;;;;;;;;;;;;;24.89;38.35;101081.19;5432752;32;35690;-80
2023/09/29 08:02:24;;;;;;;;;;;;;;;25.23;37.68;101087.97;5427983;32;34438;-78
2023/09/29 08:05:27;;;;;;;;;;;;;;;26.32;35.63;101084.19;5434716;32;33653;-81
2023/09/29 08:08:31;;;;;;;;;;;;;;;25.00;37.70;101075.72;5433813;32;35295;-83
2023/09/29 08:11:34;;;;;;;;;;;;;;;24.18;39.88;101089.94;5434972;32;35384;-77
2023/09/29 08:14:36;;;;;;;;;;;;;;;23.51;41.53;101085.69;5417787;32;33639;-80
2023/09/29 08:17:38;;;;;;;;;;;;;;;23.11;42.42;101087.22;5432647;32;34255;-76
2023/09/29 08:20:41;;;;;;;;;;;;;;;23.40;42.16;101082.19;5437499;32;35358;-80
2023/09/29 08:23:43;;;;;;;;;;;;;;;24.25;40.51;101084.91;5419786;32;35583;-77
2023/09/29 08:26:45;;;;;;;;;;;;;;;23.20;43.13;101082.00;5437602;32;37610;-81
2023/09/29 08:29:48;;;;;;;;;;;;;;;23.95;41.82;101078.47;5433812;32;35458;-84
2023/09/29 08:32:50;;;;;;;;;;;;;;;23.35;43.56;101082.56;5423315;32;34258;-86
2023/09/29 08:36:07;;;;;;;;;;;;;;;23.60;42.67;101083.22;5437054;32;34051;-81
2023/09/29 08:39:10;;;;;;;;;;;;;;;23.49;42.54;101084.09;5429520;32;33277;-81
2023/09/29 08:42:17;;;;;;;;;;;;;;;23.42;42.61;101075.72;5417896;32;34494;-80
2023/09/29 08:45:20;;;;;;;;;;;;;;;23.58;42.72;101069.09;5431147;32;34279;-82
2023/09/29 08:48:23;;;;;;;;;;;;;;;24.08;41.76;101074.75;5433712;32;34127;-80
2023/09/29 08:51:27;;;;;;;;;;;;;;;24.12;41.11;101071.69;5417841;32;34065;-80
2023/09/29 08:54:30;;;;;;;;;;;;;;;23.91;41.78;101077.03;5433295;32;34210;-80
2023/09/29 08:57:32;;;;;;;;;;;;;;;24.48;40.63;101078.44;5417491;32;34899;-79
2023/09/29 09:00:34;;;;;;;;;;;;;;;24.06;41.42;101080.25;5432432;32;34312;-88
2023/09/29 09:03:36;;;;;;;;;;;;;;;25.04;39.64;101075.31;5437031;32;35523;-84
2023/09/29 09:06:40;;;;;;;;;;;;;;;25.07;39.15;101083.12;5436037;32;34681;-84
2023/09/29 09:09:46;;;;;;;;;;;;;;;24.68;39.98;101068.66;5430989;32;34052;-82
2023/09/29 09:12:49;;;;;;;;;;;;;;;24.64;40.54;101077.97;5431358;32;34319;-82
2023/09/29 09:15:55;;;;;;;;;;;;;;;24.53;41.00;101076.19;5435346;32;34186;-86
2023/09/29 09:19:10;;;;;;;;;;;;;;;24.60;40.13;101073.81;5438936;32;34141;-86
2023/09/29 09:22:14;;;;;;;;;;;;;;;25.05;39.39;101066.28;5423950;32;35370;-84
2023/09/29 09:25:17;;;;;;;;;;;;;;;24.64;40.85;101077.97;5438174;32;34052;-87
2023/09/29 09:28:19;;;;;;;;;;;;;;;25.73;38.54;101063.72;5446803;32;34119;-90
2023/09/29 09:31:22;;;;;;;;;;;;;;;26.87;36.24;101059.25;5447567;32;34386;-86
2023/09/29 09:34:33;;;;;;;;;;;;;;;29.11;32.32;101033.59;5443362;32;35770;-89
2023/09/29 09:37:36;;;;;;;;;;;;;;;29.99;30.73;101056.56;5434789;32;34506;-85
2023/09/29 09:40:38;;;;;;;;;;;;;;;32.07;27.39;101057.87;5422933;32;34092;-88
2023/09/29 09:43:41;;;;;;;;;;;;;;;31.68;27.97;101056.12;5446048;32;35974;-86
2023/09/29 09:46:43;;;;;;;;;;;;;;;31.97;27.46;101049.16;5427601;32;33946;-87
2023/09/29 09:49:47;;;;;;;;;;;;;;;32.32;26.87;101051.16;5435787;32;34679;-82
2023/09/29 09:52:53;;;;;;;;;;;;;;;31.22;28.02;101047.09;5418963;32;34320;-89
2023/09/29 09:55:56;;;;;;;;;;;;;;;33.67;25.76;101043.50;5435845;32;34703;-85
2023/09/29 09:58:58;;;;;;;;;;;;;;;34.86;23.43;101032.63;5422266;32;35787;-85
2023/09/29 10:02:00;;;;;;;;;;;;;;;36.46;21.52;101029.09;5422891;32;34017;-90
2023/09/29 10:05:03;;;;;;;;;;;;;;;37.08;20.79;101024.88;5432808;32;34224;-84
2023/09/29 10:08:05;;;;;;;;;;;;;;;36.60;21.47;101033.47;5424090;32;33889;-85
2023/09/29 10:11:14;;;;;;;;;;;;;;;35.77;21.92;101029.53;5417658;32;37028;-84
2023/09/29 10:14:16;;;;;;;;;;;;;;;34.22;23.26;101024.69;5417313;32;34154;-85
2023/09/29 10:17:20;;;;;;;;;;;;;;;37.39;19.91;101012.28;5432132;32;35248;-85
2023/09/29 10:20:26;;;;;;;;;;;;;;;33.82;23.91;101021.62;5430127;32;35374;-86
2023/09/29 10:23:28;;;;;;;;;;;;;;;36.55;21.02;101014.13;5431409;32;34325;-86
2023/09/29 10:26:40;;;;;;;;;;;;;;;39.61;17.81;101002.03;5440233;32;35575;-92
2023/09/29 10:29:43;;;;;;;;;;;;;;;36.06;21.43;101009.97;5431453;32;35270;-90
2023/09/29 10:32:48;;;;;;;;;;;;;;;32.90;25.22;101013.28;5435578;32;35463;-87
2023/09/29 10:35:51;;;;;;;;;;;;;;;32.67;25.66;101009.84;5417677;32;35758;-86
2023/09/29 10:38:54;;;;;;;;;;;;;;;30.82;28.23;101012.84;5434135;32;35738;-83
2023/09/29 10:42:01;;;;;;;;;;;;;;;30.56;28.71;101016.66;5430458;32;34199;-81
2023/09/29 10:45:06;;;;;;;;;;;;;;;31.86;26.30;101006.09;5429985;32;34085;-81
2023/09/29 10:48:09;;;;;;;;;;;;;;;30.85;27.53;101001.62;5434505;32;35547;-79
2023/09/29 10:51:20;;;;;;;;;;;;;;;30.44;27.61;101009.91;5428570;32;34464;-83
2023/09/29 10:54:23;;;;;;;;;;;;;;;30.87;27.03;101003.16;5429788;32;34960;-83
2023/09/29 10:57:28;;;;;;;;;;;;;;;31.40;26.57;101001.50;5418592;32;34353;-81
2023/09/29 11:00:30;;;;;;;;;;;;;;;30.29;27.96;100990.81;5426235;32;34801;-80
2023/09/29 11:03:32;;;;;;;;;;;;;;;29.32;29.56;100988.97;5419205;32;35359;-81
2023/09/29 11:06:45;;;;;;;;;;;;;;;29.32;29.53;100983.56;5430617;32;33278;-82
2023/09/29 11:09:48;;;;;;;;;;;;;;;28.80;30.22;100983.75;5432788;32;33686;-81
2023/09/29 11:12:50;;;;;;;;;;;;;;;29.73;27.77;100976.31;5432141;32;33996;-84
2023/09/29 11:15:52;;;;;;;;;;;;;;;29.22;28.52;100982.84;5434351;32;34136;-85
2023/09/29 11:19:07;;;;;;;;;;;;;;;29.30;28.80;100974.72;5434854;32;34243;-85
2023/09/29 11:22:16;;;;;;;;;;;;;;;29.24;28.53;100972.69;5419208;32;34870;-78
2023/09/29 11:25:19;;;;;;;;;;;;;;;29.27;28.75;100962.37;5433369;32;34948;-82
2023/09/29 11:28:22;;;;;;;;;;;;;;;30.02;27.19;100959.50;5431112;32;35843;-84
2023/09/29 11:31:24;;;;;;;;;;;;;;;29.77;28.03;100966.00;5432956;32;33818;-79
2023/09/29 11:34:29;;;;;;;;;;;;;;;28.77;28.02;100952.44;5432325;32;34205;-84
2023/09/29 11:37:32;;;;;;;;;;;;;;;28.30;29.55;100954.75;5436078;32;34132;-83
2023/09/29 11:40:34;;;;;;;;;;;;;;;28.44;29.10;100942.53;5434896;32;34403;-83
2023/09/29 11:43:38;;;;;;;;;;;;;;;28.96;28.38;100951.34;5432796;32;34425;-86
2023/09/29 11:46:40;;;;;;;;;;;;;;;28.25;29.92;100948.97;5425109;32;33934;-86
2023/09/29 11:49:42;;;;;;;;;;;;;;;29.12;28.49;100947.84;5431550;32;34281;-80
2023/09/29 11:52:46;;;;;;;;;;;;;;;30.40;26.13;100930.78;5427742;32;37544;-83
2023/09/29 11:55:49;;;;;;;;;;;;;;;29.78;26.84;100935.16;5431462;32;34035;-81
2023/09/29 11:58:52;;;;;;;;;;;;;;;29.42;27.69;100933.62;5433351;32;34924;-81
2023/09/29 12:01:54;;;;;;;;;;;;;;;28.42;28.71;100931.87;5433961;32;34536;-81
2023/09/29 12:04:57;;;;;;;;;;;;;;;28.47;28.55;100929.53;5417873;32;34048;-83
2023/09/29 12:07:59;;;;;;;;;;;;;;;28.84;28.09;100922.88;5430959;32;34294;-82
2023/09/29 12:11:05;;;;;;;;;;;;;;;29.00;27.82;100920.25;5417771;32;34007;-82
2023/09/29 12:14:08;;;;;;;;;;;;;;;28.48;28.43;100919.56;5434083;32;34025;-91
2023/09/29 12:17:10;;;;;;;;;;;;;;;29.44;26.38;100919.09;5433482;32;35860;-85
2023/09/29 12:20:15;;;;;;;;;;;;;;;29.95;25.05;100901.63;5432152;32;34384;-86
2023/09/29 12:23:17;;;;;;;;;;;;;;;30.29;24.52;100905.94;5433670;32;33576;-83
2023/09/29 12:26:20;;;;;;;;;;;;;;;29.42;25.52;100911.97;5431526;32;34097;-81
2023/09/29 12:29:25;;;;;;;;;;;;;;;29.54;25.63;100907.09;5429486;32;35511;-88
2023/09/29 12:32:28;;;;;;;;;;;;;;;29.18;26.25;100903.03;5416860;32;34226;-82
2023/09/29 12:35:30;;;;;;;;;;;;;;;29.97;23.98;100885.16;5434108;32;35030;-80
2023/09/29 12:38:32;;;;;;;;;;;;;;;29.11;26.09;100889.28;5432849;32;34028;-83
2023/09/29 12:41:37;;;;;;;;;;;;;;;29.47;25.95;100892.50;5435215;32;34179;-85
2023/09/29 12:44:39;;;;;;;;;;;;;;;30.90;23.63;100879.84;5434168;32;33972;-83
2023/09/29 12:47:42;;;;;;;;;;;;;;;29.47;25.53;100880.84;5434504;32;34195;-88
2023/09/29 12:50:45;;;;;;;;;;;;;;;29.06;26.58;100886.25;5437341;32;34752;-90
2023/09/29 12:53:49;;;;;;;;;;;;;;;31.30;23.26;100872.41;5427592;32;34084;-86
2023/09/29 12:56:53;;;;;;;;;;;;;;;30.31;24.76;100874.06;5423207;32;33928;-82
2023/09/29 13:00:04;;;;;;;;;;;;;;;30.36;24.19;100877.09;5432155;32;34185;-80
2023/09/29 13:03:07;;;;;;;;;;;;;;;31.60;23.03;100866.03;5430196;32;32913;-85
2023/09/29 13:06:09;;;;;;;;;;;;;;;34.09;19.87;100855.50;5433115;32;34257;-83
2023/09/29 13:09:12;;;;;;;;;;;;;;;32.16;22.08;100860.16;5432811;32;33665;-82
2023/09/29 13:12:16;;;;;;;;;;;;;;;34.75;19.71;100859.31;5434635;32;34159;-89
2023/09/29 13:15:32;;;;;;;;;;;;;;;34.43;19.52;100857.34;5429236;32;34113;-81
2023/09/29 13:18:34;;;;;;;;;;;;;;;37.01;17.05;100853.38;5408459;32;35379;-85
2023/09/29 13:21:36;;;;;;;;;;;;;;;38.99;15.07;100842.03;5434824;32;35221;-81
2023/09/29 13:24:38;;;;;;;;;;;;;;;40.24;13.82;100830.63;5423395;32;34250;-84
2023/09/29 13:27:40;;;;;;;;;;;;;;;40.06;14.04;100839.06;5435113;32;34124;-89
2023/09/29 13:30:42;;;;;;;;;;;;;;;40.81;13.59;100841.63;5435745;32;33717;-86
2023/09/29 13:33:55;;;;;;;;;;;;;;;40.81;13.17;100840.81;5434812;32;35341;-83
2023/09/29 13:36:59;;;;;;;;;;;;;;;37.04;16.07;100842.81;5432670;32;35656;-84
2023/09/29 13:40:05;;;;;;;;;;;;;;;33.94;19.44;100842.00;5415016;32;35507;-82
2023/09/29 13:43:09;;;;;;;;;;;;;;;31.43;22.25;100849.06;5411179;32;34314;-86
2023/09/29 13:46:11;;;;;;;;;;;;;;;32.48;21.49;100840.72;5430625;32;34888;-81
2023/09/29 13:49:14;;;;;;;;;;;;;;;31.91;21.68;100844.16;5432691;32;34270;-81
2023/09/29 13:52:19;;;;;;;;;;;;;;;30.94;22.83;100843.19;5430710;32;33292;-83
2023/09/29 13:55:21;;;;;;;;;;;;;;;31.05;22.81;100833.78;5432100;32;35332;-83
2023/09/29 13:58:24;;;;;;;;;;;;;;;31.02;22.59;100846.66;5432362;32;34280;-81
2023/09/29 14:01:27;;;;;;;;;;;;;;;30.56;23.64;100839.50;5432005;32;34384;-83
2023/09/29 14:04:29;;;;;;;;;;;;;;;30.40;23.01;100840.44;5434918;32;35314;-81
2023/09/29 14:07:32;;;;;;;;;;;;;;;29.80;23.93;100831.00;5411170;32;34086;-82
2023/09/29 14:10:34;;;;;;;;;;;;;;;29.04;25.20;100843.09;5430796;32;33601;-82
2023/09/29 14:13:36;;;;;;;;;;;;;;;29.28;24.57;100827.88;5431821;32;35697;-82
2023/09/29 14:16:38;;;;;;;;;;;;;;;28.17;26.12;100830.06;5417014;32;34006;-82
2023/09/29 14:19:40;;;;;;;;;;;;;;;29.58;23.50;100823.66;5432813;32;34274;-87
2023/09/29 14:22:42;;;;;;;;;;;;;;;29.57;23.75;100820.09;5432985;32;34094;-83
2023/09/29 14:25:44;;;;;;;;;;;;;;;29.17;24.06;100820.09;5416903;32;34375;-83
2023/09/29 14:28:47;;;;;;;;;;;;;;;28.82;24.57;100816.69;5431983;32;34318;-83
2023/09/29 14:31:51;;;;;;;;;;;;;;;28.38;25.51;100818.81;5432888;32;34230;-81
2023/09/29 14:34:53;;;;;;;;;;;;;;;28.53;24.69;100818.03;5415317;32;34852;-82
2023/09/29 14:37:56;;;;;;;;;;;;;;;28.09;25.23;100817.38;5416908;32;36909;-81
2023/09/29 14:40:58;;;;;;;;;;;;;;;28.40;25.68;100809.53;5432536;32;35378;-82
2023/09/29 14:44:00;;;;;;;;;;;;;;;29.09;24.14;100800.16;5433614;32;34075;-82
2023/09/29 14:47:02;;;;;;;;;;;;;;;28.22;25.28;100804.22;5434827;32;34689;-82
2023/09/29 14:50:06;;;;;;;;;;;;;;;28.27;25.01;100806.41;5426826;32;35433;-83
2023/09/29 14:53:08;;;;;;;;;;;;;;;27.63;26.47;100797.00;5430979;32;34533;-83
2023/09/29 14:56:12;;;;;;;;;;;;;;;28.96;23.79;100783.59;5415647;32;34215;-83
2023/09/29 14:59:18;;;;;;;;;;;;;;;28.57;24.55;100807.72;5428547;32;35606;-83
2023/09/29 15:02:21;;;;;;;;;;;;;;;28.42;24.39;100796.72;5426930;32;34625;-81
2023/09/29 15:05:23;;;;;;;;;;;;;;;28.94;23.84;100785.63;5421563;32;35146;-81
2023/09/29 15:08:29;;;;;;;;;;;;;;;28.42;24.89;100790.47;5418112;32;34882;-82
2023/09/29 15:11:34;;;;;;;;;;;;;;;28.03;25.17;100797.25;5418427;32;34862;-81
2023/09/29 15:14:36;;;;;;;;;;;;;;;28.15;24.07;100789.69;5422657;32;34036;-84
2023/09/29 15:17:38;;;;;;;;;;;;;;;27.47;25.16;100786.97;5423247;32;34459;-83
2023/09/29 15:20:40;;;;;;;;;;;;;;;28.43;24.02;100790.28;5419800;32;34104;-82
2023/09/29 15:23:43;;;;;;;;;;;;;;;27.80;25.14;100788.00;5422227;32;33860;-81
2023/09/29 15:26:45;;;;;;;;;;;;;;;28.11;24.67;100790.16;5419098;32;34748;-82
2023/09/29 15:29:47;;;;;;;;;;;;;;;28.76;23.35;100790.31;5424128;32;35048;-82
2023/09/29 15:32:52;;;;;;;;;;;;;;;28.46;23.92;100789.94;5416010;32;33817;-82
2023/09/29 15:35:55;;;;;;;;;;;;;;;28.43;23.91;100787.59;5410866;32;34855;-82
2023/09/29 15:38:57;;;;;;;;;;;;;;;27.21;26.44;100792.38;5432897;32;34225;-81